createdAt,value
2019-03-26T00:01:21.378Z,1.20
2019-03-26T00:04:05.659Z,2.17
2019-03-26T00:06:38.447Z,2.37
2019-03-26T00:09:15.965Z,2.20
2019-03-26T00:11:53.272Z,2.35
2019-03-26T00:14:31.798Z,2.45
2019-03-26T00:17:08.512Z,3.23
2019-03-26T00:19:44.793Z,2.65
2019-03-26T00:22:21.197Z,1.22
2019-03-26T00:24:58.886Z,3.37
2019-03-26T00:27:35.958Z,2.57
2019-03-26T00:30:13.558Z,2.52
2019-03-26T00:32:50.660Z,2.55
2019-03-26T00:35:28.102Z,2.27
2019-03-26T00:38:05.105Z,2.03
2019-03-26T00:40:42.718Z,1.42
2019-03-26T00:43:23.038Z,2.65
2019-03-26T00:45:59.528Z,3.37
2019-03-26T00:48:36.462Z,2.00
2019-03-26T00:51:12.989Z,3.60
2019-03-26T00:53:50.172Z,1.62
2019-03-26T00:56:27.157Z,1.90
2019-03-26T00:59:03.515Z,1.45
2019-03-26T01:01:39.782Z,3.30
2019-03-26T01:04:16.308Z,3.90
2019-03-26T01:06:54.159Z,3.95
2019-03-26T01:09:30.606Z,3.77
2019-03-26T01:12:08.018Z,3.52
2019-03-26T01:14:45.138Z,6.62
2019-03-26T01:17:23.016Z,5.22
2019-03-26T01:20:00.244Z,3.67
2019-03-26T01:22:36.877Z,4.08
2019-03-26T01:25:13.512Z,3.70
2019-03-26T01:27:51.221Z,2.47
2019-03-26T01:30:27.884Z,2.13
2019-03-26T01:33:05.228Z,2.73
2019-03-26T01:35:42.763Z,5.08
2019-03-26T01:38:20.149Z,2.45
2019-03-26T01:40:57.033Z,4.17
2019-03-26T01:43:35.056Z,3.55
2019-03-26T01:46:12.129Z,2.77
2019-03-26T01:48:49.827Z,1.77
2019-03-26T01:51:26.802Z,2.17
2019-03-26T01:54:04.621Z,4.12
2019-03-26T01:56:41.589Z,2.90
2019-03-26T01:59:17.925Z,4.80
2019-03-26T02:01:55.230Z,2.50
2019-03-26T02:04:32.149Z,1.57
2019-03-26T02:07:09.658Z,1.60
2019-03-26T02:09:47.516Z,1.83
2019-03-26T02:12:24.668Z,3.05
2019-03-26T02:15:02.615Z,3.87
2019-03-26T02:17:39.943Z,3.00
2019-03-26T02:20:16.957Z,2.95
2019-03-26T02:22:54.152Z,2.57
2019-03-26T02:25:31.139Z,2.37
2019-03-26T02:28:08.020Z,2.30
2019-03-26T02:30:45.510Z,5.37
2019-03-26T02:33:22.592Z,1.42
2019-03-26T02:35:59.271Z,2.40
2019-03-26T02:38:36.120Z,2.70
2019-03-26T02:41:13.136Z,2.58
2019-03-26T02:43:49.703Z,3.27
2019-03-26T02:46:26.186Z,3.33
2019-03-26T02:49:02.558Z,4.47
2019-03-26T02:51:40.435Z,3.50
2019-03-26T02:54:17.688Z,1.57
2019-03-26T02:56:55.737Z,2.53
2019-03-26T02:59:32.133Z,2.47
2019-03-26T03:02:09.355Z,1.52
2019-03-26T03:04:45.931Z,2.73
2019-03-26T03:07:22.925Z,4.30
2019-03-26T03:09:59.973Z,2.20
2019-03-26T03:12:37.678Z,1.67
2019-03-26T03:15:14.470Z,2.87
2019-03-26T03:17:51.272Z,2.33
2019-03-26T03:20:28.317Z,2.13
2019-03-26T03:23:05.223Z,2.17
2019-03-26T03:25:42.369Z,3.33
2019-03-26T03:28:18.563Z,1.50
2019-03-26T03:30:55.117Z,2.65
2019-03-26T03:33:32.341Z,1.75
2019-03-26T03:36:09.333Z,2.75
2019-03-26T03:38:46.408Z,2.33
2019-03-26T03:41:23.237Z,3.50
2019-03-26T03:44:00.157Z,2.77
2019-03-26T03:46:37.826Z,2.77
2019-03-26T03:49:17.081Z,2.22
2019-03-26T03:51:54.628Z,3.50
2019-03-26T03:54:32.470Z,2.00
2019-03-26T03:57:10.102Z,3.02
2019-03-26T03:59:48.048Z,3.40
2019-03-26T04:02:25.044Z,2.33
2019-03-26T04:05:01.572Z,4.00
2019-03-26T04:07:38.760Z,3.50
2019-03-26T04:10:15.361Z,2.25
2019-03-26T04:12:52.229Z,1.05
2019-03-26T04:15:34.332Z,4.00
2019-03-26T04:18:08.441Z,2.60
2019-03-26T04:20:45.134Z,2.08
2019-03-26T04:23:22.405Z,5.78
2019-03-26T04:25:59.491Z,2.10
2019-03-26T04:28:35.967Z,2.60
2019-03-26T04:31:13.772Z,1.87
2019-03-26T04:33:50.304Z,2.37
2019-03-26T04:36:27.108Z,2.22
2019-03-26T04:39:04.591Z,1.57
2019-03-26T04:41:41.325Z,3.65
2019-03-26T04:44:18.877Z,1.87
2019-03-26T04:46:57.196Z,2.08
2019-03-26T04:49:34.164Z,3.20
2019-03-26T04:52:10.433Z,2.35
2019-03-26T04:54:47.094Z,1.95
2019-03-26T04:57:24.421Z,1.45
2019-03-26T05:00:00.734Z,2.47
2019-03-26T05:02:36.985Z,2.80
2019-03-26T05:05:14.292Z,1.93
2019-03-26T05:07:51.619Z,4.13
2019-03-26T05:10:28.177Z,3.55
2019-03-26T05:13:04.564Z,2.22
2019-03-26T05:15:41.442Z,4.13
2019-03-26T05:18:19.020Z,1.60
2019-03-26T05:20:56.077Z,3.40
2019-03-26T05:23:34.514Z,3.73
2019-03-26T05:26:10.862Z,3.27
2019-03-26T05:28:47.803Z,5.10
2019-03-26T05:31:24.936Z,2.50
2019-03-26T05:34:03.086Z,1.55
2019-03-26T05:36:50.748Z,5.07
2019-03-26T05:39:18.937Z,3.93
2019-03-26T05:41:56.345Z,3.33
2019-03-26T05:44:33.410Z,3.50
2019-03-26T05:47:10.305Z,2.72
2019-03-26T05:49:47.985Z,2.33
2019-03-26T05:52:24.992Z,4.33
2019-03-26T05:55:02.009Z,2.13
2019-03-26T05:57:39.543Z,3.87
2019-03-26T06:00:22.343Z,2.70
2019-03-26T06:02:59.465Z,3.77
2019-03-26T06:05:36.628Z,3.12
2019-03-26T06:08:13.720Z,5.00
2019-03-26T06:10:50.880Z,3.80
2019-03-26T06:13:27.656Z,3.27
2019-03-26T06:16:04.064Z,4.37
2019-03-26T06:18:40.618Z,4.80
2019-03-26T06:21:18.012Z,3.43
2019-03-26T06:23:54.973Z,6.37
2019-03-26T06:26:32.688Z,5.83
2019-03-26T06:29:10.173Z,4.97
2019-03-26T06:31:47.274Z,1.57
2019-03-26T06:34:23.965Z,3.90
2019-03-26T06:37:01.012Z,3.37
2019-03-26T06:39:37.992Z,1.80
2019-03-26T06:42:15.676Z,4.87
2019-03-26T06:44:52.265Z,3.40
2019-03-26T06:47:29.641Z,4.10
2019-03-26T06:50:08.758Z,2.95
2019-03-26T06:52:46.481Z,3.35
2019-03-26T06:55:23.145Z,4.65
2019-03-26T06:58:01.041Z,4.50
2019-03-26T07:00:38.022Z,4.00
2019-03-26T07:03:15.470Z,4.25
2019-03-26T07:05:52.101Z,3.27
2019-03-26T07:08:29.541Z,4.33
2019-03-26T07:11:06.369Z,5.10
2019-03-26T07:13:43.578Z,4.62
2019-03-26T07:16:20.823Z,4.43
2019-03-26T07:18:58.029Z,2.67
2019-03-26T07:21:34.613Z,2.33
2019-03-26T07:24:12.369Z,1.80
2019-03-26T07:26:49.157Z,2.67
2019-03-26T07:29:25.541Z,3.73
2019-03-26T07:32:02.500Z,3.35
2019-03-26T07:34:39.234Z,3.02
2019-03-26T07:37:16.285Z,2.80
2019-03-26T07:39:54.183Z,2.57
2019-03-26T07:42:30.623Z,5.50
2019-03-26T07:45:08.817Z,2.75
2019-03-26T07:47:45.464Z,3.72
2019-03-26T07:50:23.017Z,3.45
2019-03-26T07:53:00.510Z,2.02
2019-03-26T07:55:37.393Z,2.92
2019-03-26T07:58:14.892Z,2.53
2019-03-26T08:00:52.297Z,3.60
2019-03-26T08:03:29.693Z,5.40
2019-03-26T08:06:06.740Z,4.05
2019-03-26T08:08:44.128Z,3.62
2019-03-26T08:11:21.562Z,3.57
2019-03-26T08:13:58.321Z,2.90
2019-03-26T08:16:34.859Z,3.05
2019-03-26T08:19:11.491Z,7.40
2019-03-26T08:21:48.880Z,3.77
2019-03-26T08:24:25.546Z,3.57
2019-03-26T08:27:02.553Z,5.78
2019-03-26T08:29:39.572Z,2.70
2019-03-26T08:32:16.434Z,1.97
2019-03-26T08:34:53.534Z,2.00
2019-03-26T08:37:31.845Z,1.70
2019-03-26T08:40:09.130Z,2.27
2019-03-26T08:42:46.204Z,3.00
2019-03-26T08:45:23.406Z,2.23
2019-03-26T08:48:00.703Z,2.30
2019-03-26T08:50:37.973Z,2.47
2019-03-26T08:53:14.902Z,1.80
2019-03-26T08:55:52.373Z,3.92
2019-03-26T08:58:30.331Z,3.05
2019-03-26T09:01:07.115Z,2.67
2019-03-26T09:03:43.714Z,2.07
2019-03-26T09:06:20.332Z,2.17
2019-03-26T09:08:57.089Z,3.35
2019-03-26T09:11:33.935Z,3.33
2019-03-26T09:14:10.501Z,3.15
2019-03-26T09:16:47.893Z,3.47
2019-03-26T09:19:25.920Z,2.73
2019-03-26T09:22:03.064Z,2.43
2019-03-26T09:24:40.493Z,2.25
2019-03-26T09:27:17.637Z,2.93
2019-03-26T09:29:54.981Z,2.90
2019-03-26T09:32:32.419Z,2.62
2019-03-26T09:35:10.124Z,5.10
2019-03-26T09:37:46.923Z,2.45
2019-03-26T09:40:24.800Z,2.10
2019-03-26T09:43:01.367Z,1.60
2019-03-26T09:45:38.350Z,3.27
2019-03-26T09:48:15.037Z,2.53
2019-03-26T09:50:51.961Z,2.57
2019-03-26T09:53:28.982Z,2.27
2019-03-26T09:56:06.705Z,9.03
2019-03-26T09:58:43.661Z,4.37
2019-03-26T10:01:21.299Z,6.90
2019-03-26T10:03:58.058Z,4.00
2019-03-26T10:06:35.134Z,7.12
2019-03-26T10:09:12.285Z,3.90
2019-03-26T10:11:49.873Z,3.63
2019-03-26T10:14:26.812Z,4.72
2019-03-26T10:17:03.363Z,3.37
2019-03-26T10:19:40.316Z,5.70
2019-03-26T10:22:20.028Z,5.83
2019-03-26T10:24:56.304Z,7.30
2019-03-26T10:27:35.226Z,4.05
2019-03-26T10:30:14.393Z,6.47
2019-03-26T10:32:50.961Z,3.20
2019-03-26T10:35:28.590Z,6.07
2019-03-26T10:38:06.006Z,4.37
2019-03-26T10:40:42.911Z,3.62
2019-03-26T10:43:20.288Z,3.67
2019-03-26T10:45:57.328Z,7.83
2019-03-26T10:48:34.595Z,3.40
2019-03-26T10:51:12.098Z,6.03
2019-03-26T10:53:49.461Z,4.30
2019-03-26T10:56:26.494Z,3.72
2019-03-26T10:59:04.305Z,4.33
2019-03-26T11:01:41.170Z,4.20
2019-03-26T11:04:17.853Z,4.00
2019-03-26T11:06:54.795Z,6.10
2019-03-26T11:09:31.350Z,3.95
2019-03-26T11:12:08.866Z,4.10
2019-03-26T11:14:46.173Z,4.90
2019-03-26T11:17:23.241Z,4.58
2019-03-26T11:20:00.801Z,4.05
2019-03-26T11:22:38.348Z,4.05
2019-03-26T11:25:16.348Z,5.20
2019-03-26T11:27:53.700Z,4.80
2019-03-26T11:30:31.108Z,5.53
2019-03-26T11:33:07.601Z,5.70
2019-03-26T11:35:45.252Z,4.87
2019-03-26T11:38:22.616Z,4.30
2019-03-26T11:40:59.068Z,4.78
2019-03-26T11:43:35.757Z,5.23
2019-03-26T11:46:12.558Z,5.78
2019-03-26T11:48:49.606Z,4.17
2019-03-26T11:51:26.529Z,4.45
2019-03-26T11:54:02.928Z,5.53
2019-03-26T11:56:39.364Z,3.83
2019-03-26T11:59:16.208Z,4.35
2019-03-26T12:01:52.997Z,5.67
2019-03-26T12:04:29.326Z,4.90
2019-03-26T12:07:06.340Z,4.40
2019-03-26T12:09:46.416Z,5.22
2019-03-26T12:12:22.973Z,5.45
2019-03-26T12:15:00.389Z,4.25
2019-03-26T12:17:37.112Z,4.63
2019-03-26T12:20:14.655Z,4.30
2019-03-26T12:22:51.909Z,4.70
2019-03-26T12:25:29.079Z,4.73
2019-03-26T12:28:10.593Z,4.12
2019-03-26T12:30:47.724Z,5.90
2019-03-26T12:33:24.704Z,6.67
2019-03-26T12:36:01.830Z,4.85
2019-03-26T12:38:40.265Z,6.50
2019-03-26T12:41:17.177Z,5.50
2019-03-26T12:43:54.175Z,8.10
2019-03-26T12:46:31.875Z,8.25
2019-03-26T12:49:08.829Z,7.47
2019-03-26T12:51:46.399Z,5.43
2019-03-26T12:54:23.496Z,8.68
2019-03-26T12:57:00.970Z,7.40
2019-03-26T12:59:38.145Z,8.30
2019-03-26T13:02:15.179Z,6.97
2019-03-26T13:04:51.785Z,6.50
2019-03-26T13:07:28.614Z,8.93
2019-03-26T13:10:13.488Z,6.90
2019-03-26T13:12:45.272Z,6.70
2019-03-26T13:15:22.717Z,7.80
2019-03-26T13:17:59.821Z,9.43
2019-03-26T13:20:36.402Z,6.75
2019-03-26T13:23:13.573Z,8.43
2019-03-26T13:25:50.289Z,6.90
2019-03-26T13:28:27.255Z,6.85
2019-03-26T13:31:04.048Z,7.50
2019-03-26T13:33:41.099Z,4.72
2019-03-26T13:36:18.424Z,9.93
2019-03-26T13:38:55.582Z,6.17
2019-03-26T13:41:32.725Z,16.00
2019-03-26T13:44:09.945Z,5.35
2019-03-26T13:46:46.337Z,8.07
2019-03-26T13:49:23.489Z,5.80
2019-03-26T13:52:00.494Z,6.65
2019-03-26T13:54:37.736Z,8.45
2019-03-26T13:57:14.501Z,7.10
2019-03-26T13:59:51.276Z,6.87
2019-03-26T14:02:28.329Z,6.45
2019-03-26T14:05:08.024Z,6.00
2019-03-26T14:07:45.206Z,6.60
2019-03-26T14:10:21.974Z,6.62
2019-03-26T14:12:59.277Z,9.63
2019-03-26T14:15:36.158Z,5.05
2019-03-26T14:18:12.663Z,7.10
2019-03-26T14:20:49.712Z,5.97
2019-03-26T14:23:26.541Z,5.05
2019-03-26T14:26:04.180Z,6.33
2019-03-26T14:28:40.597Z,6.00
2019-03-26T14:31:17.944Z,6.72
2019-03-26T14:33:55.131Z,9.00
2019-03-26T14:36:32.212Z,8.05
2019-03-26T14:39:12.173Z,4.23
2019-03-26T14:41:48.890Z,4.80
2019-03-26T14:44:26.073Z,5.07
2019-03-26T14:47:03.541Z,5.50
2019-03-26T14:49:39.864Z,7.35
2019-03-26T14:52:17.111Z,6.73
2019-03-26T14:54:53.793Z,8.98
2019-03-26T14:57:30.665Z,6.67
2019-03-26T15:00:08.529Z,7.45
2019-03-26T15:02:45.378Z,4.47
2019-03-26T15:05:21.925Z,6.28
2019-03-26T15:08:00.113Z,6.53
2019-03-26T15:10:37.250Z,10.38
2019-03-26T15:13:14.692Z,8.38
2019-03-26T15:15:52.238Z,7.33
2019-03-26T15:18:28.922Z,14.40
2019-03-26T15:21:05.935Z,11.03
2019-03-26T15:23:43.802Z,9.53
2019-03-26T15:26:20.472Z,9.45
2019-03-26T15:28:57.432Z,10.32
2019-03-26T15:31:34.833Z,10.65
2019-03-26T15:34:12.021Z,13.38
2019-03-26T15:36:49.342Z,13.25
2019-03-26T15:39:26.426Z,14.60
2019-03-26T15:42:03.537Z,10.77
2019-03-26T15:44:40.166Z,15.48
2019-03-26T15:47:16.669Z,11.77
2019-03-26T15:49:53.628Z,12.13
2019-03-26T15:52:30.299Z,10.53
2019-03-26T15:55:08.651Z,17.37
2019-03-26T15:57:46.015Z,14.80
2019-03-26T16:00:26.336Z,11.50
2019-03-26T16:03:02.911Z,12.33
2019-03-26T16:05:39.373Z,10.70
2019-03-26T16:08:16.664Z,7.30
2019-03-26T16:10:53.461Z,14.03
2019-03-26T16:13:30.886Z,8.60
2019-03-26T16:16:08.325Z,9.43
2019-03-26T16:18:44.874Z,15.38
2019-03-26T16:21:21.349Z,14.75
2019-03-26T16:24:05.616Z,11.97
2019-03-26T16:26:42.968Z,14.25
2019-03-26T16:29:20.090Z,13.00
2019-03-26T16:31:57.781Z,15.17
2019-03-26T16:34:35.576Z,13.93
2019-03-26T16:37:12.592Z,9.45
2019-03-26T16:39:49.841Z,12.43
2019-03-26T16:42:26.994Z,14.23
2019-03-26T16:45:04.026Z,10.80
2019-03-26T16:47:40.901Z,17.67
2019-03-26T16:50:19.374Z,14.90
2019-03-26T16:52:56.053Z,14.23
2019-03-26T16:55:32.656Z,26.35
2019-03-26T16:58:10.207Z,15.18
2019-03-26T17:00:46.932Z,8.58
2019-03-26T17:03:31.151Z,13.70
2019-03-26T17:06:02.323Z,12.18
2019-03-26T17:08:39.079Z,13.32
2019-03-26T17:11:15.528Z,10.13
2019-03-26T17:13:52.594Z,7.73
2019-03-26T17:16:29.536Z,6.42
2019-03-26T17:19:06.602Z,10.45
2019-03-26T17:21:43.983Z,10.23
2019-03-26T17:24:21.432Z,7.23
2019-03-26T17:26:58.451Z,13.40
2019-03-26T17:29:36.132Z,8.10
2019-03-26T17:32:12.846Z,12.25
2019-03-26T17:34:50.505Z,9.35
2019-03-26T17:37:27.561Z,7.03
2019-03-26T17:40:05.243Z,11.30
2019-03-26T17:42:42.754Z,8.50
2019-03-26T17:45:19.633Z,7.70
2019-03-26T17:47:56.046Z,6.17
2019-03-26T17:50:32.859Z,11.17
2019-03-26T17:53:09.577Z,7.33
2019-03-26T17:55:46.257Z,6.47
2019-03-26T17:58:22.925Z,5.67
2019-03-26T18:01:00.147Z,6.93
2019-03-26T18:03:37.124Z,7.20
2019-03-26T18:06:13.964Z,9.53
2019-03-26T18:08:51.360Z,4.50
2019-03-26T18:11:28.453Z,5.93
2019-03-26T18:14:06.369Z,8.70
2019-03-26T18:16:43.179Z,8.53
2019-03-26T18:19:19.870Z,11.43
2019-03-26T18:21:56.684Z,12.40
2019-03-26T18:24:34.059Z,9.43
2019-03-26T18:27:11.061Z,14.70
2019-03-26T18:29:48.024Z,14.58
2019-03-26T18:32:25.194Z,12.45
2019-03-26T18:35:02.856Z,14.60
2019-03-26T18:37:40.060Z,8.20
2019-03-26T18:40:17.425Z,9.13
2019-03-26T18:42:54.581Z,6.60
2019-03-26T18:45:31.400Z,8.10
2019-03-26T18:48:08.417Z,7.65
2019-03-26T18:50:46.049Z,5.12
2019-03-26T18:53:23.416Z,4.55
2019-03-26T18:56:01.064Z,5.07
2019-03-26T18:58:40.516Z,5.40
2019-03-26T19:01:18.167Z,6.75
2019-03-26T19:03:55.433Z,5.27
2019-03-26T19:06:31.825Z,5.23
2019-03-26T19:09:09.214Z,7.07
2019-03-26T19:11:46.328Z,6.60
2019-03-26T19:14:23.594Z,5.65
2019-03-26T19:17:01.357Z,6.63
2019-03-26T19:19:37.712Z,5.67
2019-03-26T19:22:14.651Z,6.90
2019-03-26T19:24:54.090Z,4.97
2019-03-26T19:27:30.882Z,6.07
2019-03-26T19:30:08.937Z,7.07
2019-03-26T19:32:46.237Z,4.17
2019-03-26T19:35:23.435Z,7.33
2019-03-26T19:38:00.385Z,6.47
2019-03-26T19:40:36.885Z,6.22
2019-03-26T19:43:13.649Z,4.95
2019-03-26T19:45:50.652Z,8.60
2019-03-26T19:48:28.104Z,3.87
2019-03-26T19:51:05.148Z,8.67
2019-03-26T19:53:42.270Z,5.83
2019-03-26T19:56:19.636Z,8.73
2019-03-26T19:58:56.870Z,6.42
2019-03-26T20:01:34.557Z,6.07
2019-03-26T20:04:11.522Z,6.03
2019-03-26T20:06:48.275Z,6.97
2019-03-26T20:09:25.640Z,6.20
2019-03-26T20:12:02.631Z,4.83
2019-03-26T20:14:39.495Z,6.20
2019-03-26T20:17:16.255Z,5.93
2019-03-26T20:19:53.789Z,4.37
2019-03-26T20:22:30.339Z,5.67
2019-03-26T20:25:07.561Z,5.12
2019-03-26T20:27:45.817Z,5.70
2019-03-26T20:30:23.716Z,8.38
2019-03-26T20:33:01.345Z,5.05
2019-03-26T20:35:38.459Z,2.97
2019-03-26T20:38:19.136Z,3.83
2019-03-26T20:40:58.056Z,5.43
2019-03-26T20:43:37.526Z,5.15
2019-03-26T20:46:13.369Z,5.10
2019-03-26T20:48:50.878Z,5.33
2019-03-26T20:51:27.586Z,5.40
2019-03-26T20:54:04.844Z,5.50
2019-03-26T20:56:42.154Z,3.02
2019-03-26T20:59:19.419Z,3.93
2019-03-26T21:02:00.674Z,5.07
2019-03-26T21:04:37.654Z,6.72
2019-03-26T21:07:14.197Z,6.60
2019-03-26T21:09:51.326Z,5.43
2019-03-26T21:12:28.048Z,4.67
2019-03-26T21:15:06.195Z,4.87
2019-03-26T21:17:43.033Z,4.10
2019-03-26T21:20:20.686Z,9.60
2019-03-26T21:22:57.088Z,4.10
2019-03-26T21:25:34.365Z,5.08
2019-03-26T21:28:11.108Z,5.30
2019-03-26T21:30:48.236Z,5.77
2019-03-26T21:33:25.333Z,4.75
2019-03-26T21:36:02.399Z,4.33
2019-03-26T21:38:39.196Z,3.98
2019-03-26T21:41:15.773Z,4.85
2019-03-26T21:44:03.690Z,4.80
2019-03-26T21:46:31.957Z,3.67
2019-03-26T21:49:09.391Z,3.52
2019-03-26T21:51:46.482Z,3.87
2019-03-26T21:54:24.080Z,4.40
2019-03-26T21:57:00.761Z,5.73
2019-03-26T21:59:37.760Z,3.43
2019-03-26T22:02:17.640Z,4.17
2019-03-26T22:04:54.557Z,3.08
2019-03-26T22:07:33.589Z,6.67
2019-03-26T22:10:10.851Z,3.95
2019-03-26T22:12:47.636Z,3.67
2019-03-26T22:15:25.882Z,5.67
2019-03-26T22:18:03.871Z,4.00
2019-03-26T22:20:41.033Z,4.60
2019-03-26T22:23:18.702Z,3.83
2019-03-26T22:25:55.721Z,6.13
2019-03-26T22:28:32.249Z,4.47
2019-03-26T22:31:10.138Z,3.93
2019-03-26T22:33:47.089Z,3.63
2019-03-26T22:36:24.487Z,5.00
2019-03-26T22:39:01.866Z,5.50
2019-03-26T22:41:39.286Z,4.93
2019-03-26T22:44:16.181Z,4.63
2019-03-26T22:46:53.464Z,4.13
2019-03-26T22:49:30.401Z,4.73
2019-03-26T22:52:10.099Z,5.80
2019-03-26T22:54:47.656Z,3.27
2019-03-26T22:57:25.017Z,5.30
2019-03-26T23:00:01.645Z,4.65
2019-03-26T23:02:38.045Z,4.10
2019-03-26T23:05:15.645Z,4.53
2019-03-26T23:07:52.540Z,7.13
2019-03-26T23:10:30.241Z,4.07
2019-03-26T23:13:07.238Z,5.40
2019-03-26T23:15:43.933Z,5.80
2019-03-26T23:18:20.613Z,4.05
2019-03-26T23:20:59.794Z,5.27
2019-03-26T23:23:36.210Z,3.87
2019-03-26T23:26:12.793Z,4.07
2019-03-26T23:28:50.611Z,3.60
2019-03-26T23:31:27.672Z,4.28
2019-03-26T23:34:05.213Z,5.40
2019-03-26T23:36:42.345Z,7.42
2019-03-26T23:39:19.610Z,3.73
2019-03-26T23:41:57.137Z,4.03
2019-03-26T23:44:34.802Z,5.87
2019-03-26T23:47:11.020Z,4.35
2019-03-26T23:49:47.911Z,4.60
2019-03-26T23:52:25.014Z,5.03
2019-03-26T23:55:01.713Z,6.13
2019-03-26T23:57:38.105Z,4.33
